EGPH Airport Information

Runway Information
Runway 06 Length 8400 ft width 150 ft
Elevation 110 ft Threshold 700 ft Heading 59
Runway 24 Length 8400 ft Width 150 ft
Elevation 100 ft Threshold 700 ft Heading 239
Runway 08 Length 2621 ft width 150 ft
Elevation 100 ft Threshold 0 ft Heading 70
Runway 26 Length 2621 ft Width 150 ft
Elevation 110 ft Threshold 0 ft Heading 250
Runway 12 Length 5730 ft width 150 ft
Elevation 99 ft Threshold 0 ft Heading 119
Runway 30 Length 5730 ft Width 150 ft
Elevation 134 ft Threshold 204 ft Heading 299
Airport Frequencies
Type APP Name APP Frequency 121.2 MHZ
Type ATIS Name ATIS Frequency 131.35 MHZ
Type GND Name GND Frequency 121.75 MHZ
Type TWR Name TWR Frequency 118.7 MHZ
Airport Navaids
Type NDB Name Edinburgh Frequency 341 KHZ
Type NDB Name Edinburgh Frequency 368 KHZ
Airport Weather Information & NOTAM
ADDS - METARS form results

(1744 UTC 01 December 2021)
Data provider http://aviationweather.gov/metar/data/
 
METAR text: EGPH 011720Z 34004KT 280V020 CAVOK 03/M02 Q1006
Conditions at: EGPH (EDINBURGH AIRPOR, GB) observed 1720 UTC 01 December 2021
Temperature: 3.0°C (37°F)
Dewpoint: -2.0°C (28°F) [RH = 70%]
Pressure (altimeter): 29.70 inches Hg (1006.0 mb)
Winds: from the NNW (340 degrees) at 5 MPH (4 knots; 2.1 m/s)
Visibility: 6 or more miles (10+ km)
Ceiling: ceiling and visibility are OK
Clouds: unknown
Weather: no significant weather observed at this time

METAR text: EGPH 011650Z 35005KT 320V030 CAVOK 03/M02 Q1006
Conditions at: EGPH (EDINBURGH AIRPOR, GB) observed 1650 UTC 01 December 2021
Temperature: 3.0°C (37°F)
Dewpoint: -2.0°C (28°F) [RH = 70%]
Pressure (altimeter): 29.70 inches Hg (1006.0 mb)
Winds: from the N (350 degrees) at 6 MPH (5 knots; 2.6 m/s)
Visibility: 6 or more miles (10+ km)
Ceiling: ceiling and visibility are OK
Clouds: unknown
Weather: no significant weather observed at this time

Forecast for: EGPH (EDINBURGH AIRPOR, GB)
Text: TAF EGPH 011657Z 0118/0218 32009KT 9999 SCT018
Forecast period: 1800 UTC 01 December 2021 to 0300 UTC 02 December 2021
Forecast type: FROM: standard forecast or significant change
Winds: from the NW (320 degrees) at 10 MPH (9 knots; 4.6 m/s)
Visibility: 6 or more miles (10+ km)
Ceiling: at least 12,000 feet AGL
Clouds: scattered clouds at 1800 feet AGL
Weather: no significant weather forecast for this period
Text: BECMG 0203/0206 23010KT
Forecast period: 0300 to 1800 UTC 02 December 2021
Forecast type: BECOMING: Conditions expected to become as follows by 0600 UTC 02 December 2021
Winds: from the SW (230 degrees) at 12 MPH (10 knots; 5.1 m/s)
Visibility: 6 or more miles (10+ km)
Ceiling: at least 12,000 feet AGL
Clouds: scattered clouds at 1800 feet AGL
Weather: no significant weather forecast for this period